PAL7741 RPLL-VHHH
Flight info
| Callsign | PAL7741 |
|---|---|
| Flight time | N/A |
| Altitude | 38000 |
| Route | CAB2R CAB A461 NOMAN V532 BETTY |
| Aircraft | A388/J-SADE2E3FGHIJ3J4J5M1RWXY/LB1D1 |
Departure
| Time | 2026-05-06 16:03 |
|---|---|
| Airport | Ninoy Aquino International Airport (RPLL) |
Arrival
| Time | N/A |
|---|---|
| Airport | Hong Kong International Airport (VHHH) |
| Time | Latitude | Longitude | Altitude | Speed | Heading |
|---|---|---|---|---|---|
| 2026-05-06 15:40 | 14.51701 | 121.01461 | 74 ft | 0 kts | 44° |
| 2026-05-06 15:51 | 14.51698 | 121.01457 | 74 ft | 3 kts | 44° |
| 2026-05-06 15:51 | 14.51679 | 121.01438 | 61 ft | 4 kts | 45° |
| 2026-05-06 15:51 | 14.51662 | 121.01420 | 63 ft | 3 kts | 46° |
| 2026-05-06 15:52 | 14.51652 | 121.01400 | 63 ft | 4 kts | 104° |
| 2026-05-06 15:52 | 14.51664 | 121.01376 | 63 ft | 4 kts | 131° |
| 2026-05-06 15:52 | 14.51676 | 121.01362 | 68 ft | 1 kts | 135° |
| 2026-05-06 15:52 | 14.51678 | 121.01360 | 67 ft | 3 kts | 135° |
| 2026-05-06 15:54 | 14.51678 | 121.01361 | 68 ft | 2 kts | 135° |
| 2026-05-06 15:55 | 14.51647 | 121.01393 | 66 ft | 9 kts | 134° |
| 2026-05-06 15:55 | 14.51592 | 121.01451 | 73 ft | 13 kts | 134° |
| 2026-05-06 15:55 | 14.51521 | 121.01526 | 65 ft | 16 kts | 136° |
| 2026-05-06 15:55 | 14.51437 | 121.01610 | 63 ft | 18 kts | 135° |
| 2026-05-06 15:56 | 14.51346 | 121.01705 | 63 ft | 19 kts | 134° |
| 2026-05-06 15:56 | 14.51249 | 121.01806 | 63 ft | 20 kts | 134° |
| 2026-05-06 15:56 | 14.51183 | 121.01875 | 63 ft | 0 kts | 136° |
| 2026-05-06 15:58 | 14.51157 | 121.01901 | 68 ft | 13 kts | 136° |
| 2026-05-06 15:58 | 14.51086 | 121.01973 | 64 ft | 11 kts | 148° |
| 2026-05-06 15:58 | 14.51034 | 121.01958 | 69 ft | 9 kts | 227° |
| 2026-05-06 15:59 | 14.50984 | 121.01890 | 66 ft | 14 kts | 242° |
| 2026-05-06 15:59 | 14.50929 | 121.01784 | 63 ft | 19 kts | 240° |
| 2026-05-06 15:59 | 14.50819 | 121.01590 | 65 ft | 34 kts | 241° |
| 2026-05-06 15:59 | 14.50704 | 121.01382 | 64 ft | 33 kts | 240° |
| 2026-05-06 16:00 | 14.50591 | 121.01178 | 69 ft | 33 kts | 240° |
| 2026-05-06 16:00 | 14.50474 | 121.00970 | 66 ft | 33 kts | 240° |
| 2026-05-06 16:00 | 14.50358 | 121.00762 | 64 ft | 34 kts | 240° |
| 2026-05-06 16:00 | 14.50241 | 121.00553 | 67 ft | 34 kts | 240° |
| 2026-05-06 16:01 | 14.50124 | 121.00344 | 63 ft | 33 kts | 240° |
| 2026-05-06 16:01 | 14.50013 | 121.00144 | 68 ft | 33 kts | 240° |
| 2026-05-06 16:01 | 14.49951 | 121.00029 | 64 ft | 0 kts | 239° |
| 2026-05-06 16:01 | 14.49950 | 121.00029 | 64 ft | 1 kts | 239° |
| 2026-05-06 16:02 | 14.49922 | 120.99985 | 65 ft | 9 kts | 218° |
| 2026-05-06 16:02 | 14.49868 | 120.99979 | 67 ft | 7 kts | 140° |
| 2026-05-06 16:02 | 14.49831 | 121.00024 | 66 ft | 10 kts | 113° |
| 2026-05-06 16:02 | 14.49835 | 121.00088 | 66 ft | 16 kts | 70° |
| 2026-05-06 16:03 | 14.50072 | 121.00521 | 61 ft | 124 kts | 60° |
| 2026-05-06 16:03 | 14.50616 | 121.01490 | 336 ft | 171 kts | 61° |
| 2026-05-06 16:03 | 14.51254 | 121.02562 | 933 ft | 180 kts | 57° |
| 2026-05-06 16:03 | 14.51967 | 121.03658 | 1481 ft | 187 kts | 57° |
| 2026-05-06 16:04 | 14.52688 | 121.04792 | 2039 ft | 193 kts | 57° |
| 2026-05-06 16:04 | 14.53460 | 121.06012 | 2648 ft | 214 kts | 57° |
| 2026-05-06 16:04 | 14.53730 | 121.06443 | 2832 ft | 221 kts | 57° |
| 2026-05-06 16:05 | 14.53985 | 121.06850 | 3012 ft | 228 kts | 57° |
| 2026-05-06 16:05 | 14.54670 | 121.07932 | 3279 ft | 217 kts | 57° |
| 2026-05-06 16:05 | 14.55268 | 121.08873 | 3318 ft | 240 kts | 57° |
| 2026-05-06 16:06 | 14.56226 | 121.10381 | 3824 ft | 263 kts | 57° |
| 2026-05-06 16:06 | 14.57250 | 121.11999 | 4539 ft | 275 kts | 57° |
| 2026-05-06 16:06 | 14.58310 | 121.13668 | 5418 ft | 280 kts | 57° |
| 2026-05-06 16:06 | 14.59644 | 121.15144 | 6279 ft | 286 kts | 35° |
| 2026-05-06 16:07 | 14.61489 | 121.15918 | 7122 ft | 291 kts | 10° |
| 2026-05-06 16:07 | 14.63505 | 121.15878 | 8017 ft | 294 kts | 354° |
| 2026-05-06 16:07 | 14.65544 | 121.15536 | 8822 ft | 299 kts | 352° |
| 2026-05-06 16:07 | 14.67591 | 121.15140 | 9681 ft | 302 kts | 352° |
| 2026-05-06 16:08 | 14.69680 | 121.14755 | 10345 ft | 311 kts | 352° |
| 2026-05-06 16:08 | 14.71890 | 121.14380 | 10553 ft | 333 kts | 353° |
| 2026-05-06 16:08 | 14.74259 | 121.14002 | 10748 ft | 355 kts | 353° |
| 2026-05-06 16:08 | 14.76774 | 121.13610 | 10948 ft | 376 kts | 353° |
| 2026-05-06 16:09 | 14.79429 | 121.13197 | 11136 ft | 395 kts | 353° |
| 2026-05-06 16:09 | 14.82203 | 121.12766 | 11409 ft | 410 kts | 353° |
| 2026-05-06 16:09 | 14.85034 | 121.12323 | 11990 ft | 414 kts | 353° |
| 2026-05-06 16:09 | 14.87620 | 121.11918 | 12475 ft | 418 kts | 353° |
| 2026-05-06 16:10 | 14.90506 | 121.11466 | 12990 ft | 422 kts | 353° |
| 2026-05-06 16:10 | 14.93414 | 121.11012 | 13505 ft | 426 kts | 353° |
| 2026-05-06 16:10 | 14.96373 | 121.10550 | 13990 ft | 429 kts | 352° |
| 2026-05-06 16:10 | 14.99326 | 121.10089 | 14471 ft | 431 kts | 352° |
| 2026-05-06 16:11 | 15.02308 | 121.09623 | 14907 ft | 434 kts | 352° |
| 2026-05-06 16:11 | 15.05289 | 121.09157 | 15372 ft | 436 kts | 352° |
| 2026-05-06 16:11 | 15.08296 | 121.08687 | 15791 ft | 438 kts | 352° |
| 2026-05-06 16:11 | 15.11315 | 121.08215 | 16186 ft | 441 kts | 352° |
| 2026-05-06 16:12 | 15.14361 | 121.07739 | 16602 ft | 443 kts | 352° |
| 2026-05-06 16:12 | 15.17413 | 121.07262 | 16977 ft | 445 kts | 352° |
| 2026-05-06 16:12 | 15.20484 | 121.06781 | 17353 ft | 448 kts | 352° |
| 2026-05-06 16:12 | 15.23576 | 121.06297 | 17722 ft | 450 kts | 352° |
| 2026-05-06 16:13 | 15.26642 | 121.05816 | 18091 ft | 452 kts | 352° |
| 2026-05-06 16:13 | 15.29798 | 121.05322 | 18428 ft | 454 kts | 352° |
| 2026-05-06 16:13 | 15.32893 | 121.04837 | 18736 ft | 457 kts | 352° |
| 2026-05-06 16:13 | 15.36039 | 121.04344 | 19048 ft | 459 kts | 352° |
| 2026-05-06 16:14 | 15.39202 | 121.03848 | 19361 ft | 461 kts | 352° |
| 2026-05-06 16:14 | 15.42386 | 121.03349 | 19673 ft | 463 kts | 352° |
| 2026-05-06 16:14 | 15.45558 | 121.02783 | 19963 ft | 465 kts | 347° |
| 2026-05-06 16:14 | 15.48675 | 121.01866 | 20271 ft | 467 kts | 341° |
| 2026-05-06 16:15 | 15.49604 | 121.01515 | 20365 ft | 468 kts | 339° |
| 2026-05-06 16:15 | 15.51911 | 121.00484 | 20450 ft | 463 kts | 334° |
| 2026-05-06 16:16 | 15.53774 | 120.99484 | 20381 ft | 461 kts | 332° |
| 2026-05-06 16:16 | 15.56617 | 120.97936 | 20123 ft | 462 kts | 333° |
| 2026-05-06 16:16 | 15.59501 | 120.96410 | 20275 ft | 468 kts | 333° |
| 2026-05-06 16:16 | 15.62407 | 120.94881 | 20620 ft | 469 kts | 333° |
| 2026-05-06 16:17 | 15.65325 | 120.93341 | 20902 ft | 471 kts | 333° |
| 2026-05-06 16:17 | 15.68253 | 120.91789 | 21197 ft | 474 kts | 333° |
| 2026-05-06 16:17 | 15.71183 | 120.90233 | 21500 ft | 476 kts | 332° |
| 2026-05-06 16:17 | 15.71863 | 120.89871 | 21575 ft | 475 kts | 332° |
| 2026-05-06 16:18 | 15.73189 | 120.89162 | 21618 ft | 470 kts | 332° |
| 2026-05-06 16:18 | 15.73829 | 120.88817 | 21567 ft | 469 kts | 332° |
| 2026-05-06 16:18 | 15.76704 | 120.87263 | 21287 ft | 467 kts | 332° |
| 2026-05-06 16:18 | 15.79585 | 120.85710 | 21011 ft | 465 kts | 332° |
| 2026-05-06 16:19 | 15.82455 | 120.84170 | 20727 ft | 463 kts | 332° |
| 2026-05-06 16:19 | 15.85313 | 120.82642 | 20446 ft | 461 kts | 332° |
| 2026-05-06 16:19 | 15.88166 | 120.81119 | 20181 ft | 459 kts | 332° |
| 2026-05-06 16:19 | 15.91002 | 120.79606 | 19921 ft | 457 kts | 332° |
| 2026-05-06 16:20 | 15.93826 | 120.78099 | 19666 ft | 456 kts | 332° |
| 2026-05-06 16:20 | 15.96635 | 120.76599 | 19392 ft | 454 kts | 332° |
| 2026-05-06 16:20 | 15.99443 | 120.75100 | 19145 ft | 452 kts | 332° |
| 2026-05-06 16:20 | 16.02231 | 120.73611 | 18892 ft | 450 kts | 332° |
| 2026-05-06 16:21 | 16.05012 | 120.72124 | 18647 ft | 448 kts | 332° |
| 2026-05-06 16:21 | 16.07787 | 120.70641 | 18399 ft | 447 kts | 332° |
| 2026-05-06 16:21 | 16.10547 | 120.69166 | 18147 ft | 445 kts | 332° |
| 2026-05-06 16:21 | 16.13297 | 120.67695 | 17872 ft | 443 kts | 332° |
| 2026-05-06 16:22 | 16.16036 | 120.66229 | 17624 ft | 441 kts | 332° |
| 2026-05-06 16:22 | 16.18761 | 120.64770 | 17363 ft | 440 kts | 332° |
| 2026-05-06 16:22 | 16.21479 | 120.63316 | 17121 ft | 438 kts | 333° |
| 2026-05-06 16:22 | 16.24182 | 120.61867 | 16882 ft | 436 kts | 333° |
| 2026-05-06 16:23 | 16.26878 | 120.60423 | 16642 ft | 435 kts | 333° |
| 2026-05-06 16:23 | 16.29372 | 120.59086 | 16446 ft | 434 kts | 333° |
| 2026-05-06 16:23 | 16.30693 | 120.58378 | 16331 ft | 433 kts | 333° |
| 2026-05-06 16:23 | 16.32238 | 120.57549 | 16205 ft | 432 kts | 333° |
| 2026-05-06 16:24 | 16.33726 | 120.56751 | 16085 ft | 432 kts | 333° |
| 2026-05-06 16:24 | 16.36121 | 120.55466 | 15894 ft | 430 kts | 333° |
| 2026-05-06 16:24 | 16.38802 | 120.54034 | 15832 ft | 438 kts | 333° |
| 2026-05-06 16:24 | 16.41450 | 120.52639 | 16257 ft | 440 kts | 333° |
| 2026-05-06 16:25 | 16.44212 | 120.51180 | 16677 ft | 442 kts | 333° |
| 2026-05-06 16:25 | 16.47002 | 120.49695 | 17058 ft | 445 kts | 333° |
| 2026-05-06 16:25 | 16.49764 | 120.48217 | 17452 ft | 447 kts | 333° |
| 2026-05-06 16:25 | 16.52501 | 120.46748 | 17805 ft | 450 kts | 332° |
| 2026-05-06 16:26 | 16.55289 | 120.45250 | 18172 ft | 452 kts | 332° |
| 2026-05-06 16:26 | 16.58099 | 120.43739 | 18491 ft | 455 kts | 332° |
| 2026-05-06 16:26 | 16.60915 | 120.42224 | 18817 ft | 457 kts | 332° |
| 2026-05-06 16:26 | 16.63748 | 120.40700 | 19120 ft | 459 kts | 332° |
| 2026-05-06 16:27 | 16.66595 | 120.39168 | 19427 ft | 461 kts | 332° |
| 2026-05-06 16:27 | 16.69448 | 120.37611 | 19722 ft | 463 kts | 330° |
| 2026-05-06 16:27 | 16.72165 | 120.35796 | 20033 ft | 465 kts | 323° |
| 2026-05-06 16:27 | 16.74679 | 120.33676 | 20348 ft | 466 kts | 317° |
| 2026-05-06 16:28 | 16.76975 | 120.31283 | 20648 ft | 467 kts | 312° |
| 2026-05-06 16:28 | 16.79215 | 120.28805 | 20956 ft | 470 kts | 313° |
| 2026-05-06 16:28 | 16.81471 | 120.26334 | 21252 ft | 471 kts | 313° |
| 2026-05-06 16:28 | 16.83742 | 120.23851 | 21557 ft | 473 kts | 313° |
| 2026-05-06 16:29 | 16.86020 | 120.21359 | 21854 ft | 476 kts | 313° |
| 2026-05-06 16:29 | 16.88305 | 120.18856 | 22158 ft | 477 kts | 313° |
| 2026-05-06 16:29 | 16.90601 | 120.16337 | 22451 ft | 479 kts | 313° |
| 2026-05-06 16:29 | 16.92902 | 120.13811 | 22746 ft | 481 kts | 313° |
| 2026-05-06 16:30 | 16.95215 | 120.11271 | 23044 ft | 483 kts | 313° |
| 2026-05-06 16:30 | 16.96750 | 120.09584 | 23241 ft | 484 kts | 312° |
| 2026-05-06 16:30 | 16.99861 | 120.06164 | 23632 ft | 487 kts | 312° |
| 2026-05-06 16:30 | 17.02199 | 120.03593 | 23940 ft | 488 kts | 312° |
| 2026-05-06 16:31 | 17.04535 | 120.01024 | 24247 ft | 489 kts | 312° |
| 2026-05-06 16:31 | 17.06881 | 119.98442 | 24558 ft | 491 kts | 312° |
| 2026-05-06 16:31 | 17.09240 | 119.95845 | 24877 ft | 492 kts | 312° |
| 2026-05-06 16:31 | 17.11570 | 119.93279 | 25050 ft | 494 kts | 312° |
| 2026-05-06 16:32 | 17.13932 | 119.90677 | 24987 ft | 493 kts | 312° |
| 2026-05-06 16:32 | 17.16297 | 119.88070 | 24986 ft | 493 kts | 312° |
| 2026-05-06 16:32 | 17.18657 | 119.85468 | 24986 ft | 491 kts | 312° |
| 2026-05-06 16:32 | 17.19563 | 119.84469 | 24984 ft | 478 kts | 312° |
| 2026-05-06 16:33 | 17.21733 | 119.82080 | 24986 ft | 446 kts | 312° |
| 2026-05-06 16:33 | 17.23099 | 119.80576 | 24985 ft | 429 kts | 312° |